Карточка аэропорта URWW

Внимание!
Информация на этой странице в стадии наполнения.
Если вы не увидели какой-то информации, или заметили неточность - пожалуйста сообщите нам!
Спасибо!
Команда RU-STAFF
Название аэропортаГумрак
Название аэропорта (англ.)Gumrak
Превышение482 ft. (146.9 m.)
Координаты48°46.95', 44°20.736'
Высота перехода3000 ft
Эшелон переходаFL40 (QNH >= 1013); FL50 (QNH 977-1012); FL60 (QNH < 977)
Коды ответчика1020-1027
Зона ОрВДРостов-на-Дону РПИ (URRV)
Данные METARURWW 252130Z 33003MPS CAVOK 13/11 Q1008 R05/290060 TEMPO 1000 BR BKN003
Проноз погоды (TAF)URWW 251955Z 2521/2606 32005G10MPS 9999 BKN016 BKN020CB TEMPO 2521/2524 35006G18MPS 6000 -TSRAGR TEMPO 2600/2606 35006G14MPS -SHRA PROB40 TEMPO 2600/2606 -TSRAGR BKN005 BKN020CB
NOTAMshow/hide NOTAM
AWOS   TABLE

Информация о ВПП

ВПП Длина ВПП (м.) Покрытие Курс ВПП Частота ILS
062800Асфальтобетон55111.7
242800Асфальтобетон235110.5

Диспетчерские позиции

Позывной Наименование органа УВД Частота
URWW_TWRВолгоград-Вышка128.0
URWW_APPВолгоград-Подход125.3
URWW_GNDВолгоград-Руление119.0



Спутниковое изображение